createdAt,value
2023-04-18T00:01:39.290Z,23.60
2023-04-18T00:04:06.648Z,23.33
2023-04-18T00:06:34.564Z,23.67
2023-04-18T00:09:02.077Z,24.30
2023-04-18T00:11:29.554Z,21.70
2023-04-18T00:13:57.290Z,22.13
2023-04-18T00:17:02.427Z,21.70
2023-04-18T00:19:29.860Z,23.52
2023-04-18T00:21:57.190Z,22.73
2023-04-18T00:24:24.213Z,23.27
2023-04-18T00:26:51.517Z,23.33
2023-04-18T00:29:18.512Z,21.95
2023-04-18T00:31:45.862Z,21.55
2023-04-18T00:34:15.609Z,21.88
2023-04-18T00:36:43.016Z,22.65
2023-04-18T00:39:12.396Z,21.38
2023-04-18T00:41:42.232Z,22.40
2023-04-18T00:44:11.559Z,23.65
2023-04-18T00:46:41.305Z,25.58
2023-04-18T00:49:08.478Z,23.98
2023-04-18T00:51:36.209Z,24.70
2023-04-18T00:54:06.951Z,25.58
2023-04-18T00:56:35.522Z,25.67
2023-04-18T00:59:02.869Z,25.00
2023-04-18T01:01:30.245Z,24.45
2023-04-18T01:03:57.430Z,26.00
2023-04-18T01:06:25.733Z,23.45
2023-04-18T01:08:59.041Z,23.98
2023-04-18T01:11:26.336Z,23.90
2023-04-18T01:14:03.999Z,24.88
2023-04-18T01:16:32.625Z,23.75
2023-04-18T01:19:00.921Z,26.10
2023-04-18T01:22:06.035Z,23.42
2023-04-18T01:24:33.705Z,24.33
2023-04-18T01:27:01.013Z,22.98
2023-04-18T01:29:28.070Z,23.17
2023-04-18T01:31:55.446Z,22.58
2023-04-18T01:34:24.707Z,25.30
2023-04-18T01:36:52.032Z,23.40
2023-04-18T01:39:19.061Z,25.02
2023-04-18T01:41:48.707Z,24.73
2023-04-18T01:44:16.127Z,25.35
2023-04-18T01:46:46.227Z,23.10
2023-04-18T01:49:16.444Z,23.10
2023-04-18T01:51:43.839Z,29.35
2023-04-18T01:54:10.944Z,24.63
2023-04-18T01:56:38.387Z,25.00
2023-04-18T01:59:05.414Z,23.88
2023-04-18T02:01:34.992Z,23.73
2023-04-18T02:04:04.544Z,23.85
2023-04-18T02:06:31.854Z,24.65
2023-04-18T02:09:00.091Z,24.63
2023-04-18T02:11:27.387Z,24.17
2023-04-18T02:13:54.493Z,25.98
2023-04-18T02:16:24.314Z,25.77
2023-04-18T02:18:51.450Z,27.23
2023-04-18T02:21:21.094Z,24.42
2023-04-18T02:23:48.205Z,24.20
2023-04-18T02:26:17.603Z,23.65
2023-04-18T02:28:44.742Z,22.42
2023-04-18T02:31:12.138Z,25.00
2023-04-18T02:33:45.743Z,23.92
2023-04-18T02:36:15.695Z,23.02
2023-04-18T02:38:42.912Z,22.63
2023-04-18T02:41:10.198Z,23.88
2023-04-18T02:43:37.205Z,24.13
2023-04-18T02:46:04.713Z,22.35
2023-04-18T02:48:31.752Z,29.08
2023-04-18T02:51:03.607Z,24.17
2023-04-18T02:53:33.278Z,22.48
2023-04-18T02:56:01.274Z,23.50
2023-04-18T02:58:28.351Z,22.13
2023-04-18T03:03:44.705Z,23.10
2023-04-18T03:06:14.307Z,22.95
2023-04-18T03:08:41.303Z,22.38
2023-04-18T03:11:11.344Z,21.80
2023-04-18T03:13:38.353Z,22.27
2023-04-18T03:16:05.935Z,23.70
2023-04-18T03:18:33.009Z,22.13
2023-04-18T03:21:00.312Z,21.52
2023-04-18T03:23:32.008Z,21.25
2023-04-18T03:26:01.853Z,19.63
2023-04-18T03:28:28.871Z,19.42
2023-04-18T03:30:59.540Z,19.67
2023-04-18T03:33:26.696Z,18.63
2023-04-18T03:35:53.968Z,18.15
2023-04-18T03:38:21.038Z,18.38
2023-04-18T03:40:48.512Z,17.55
2023-04-18T03:43:15.526Z,16.13
2023-04-18T03:45:45.199Z,16.73
2023-04-18T03:48:12.372Z,16.58
2023-04-18T03:50:40.061Z,16.50
2023-04-18T03:53:07.130Z,17.48
2023-04-18T03:55:34.570Z,18.13
2023-04-18T03:58:01.601Z,17.10
2023-04-18T04:00:31.281Z,18.48
2023-04-18T04:03:01.229Z,19.88
2023-04-18T04:05:31.118Z,18.50
2023-04-18T04:07:58.255Z,18.55
2023-04-18T04:10:27.589Z,19.88
2023-04-18T04:12:54.947Z,20.40
2023-04-18T04:15:24.161Z,21.73
2023-04-18T04:17:54.002Z,20.38
2023-04-18T04:20:21.040Z,20.67
2023-04-18T04:22:50.873Z,21.17
2023-04-18T04:25:18.056Z,21.00
2023-04-18T04:27:47.929Z,19.70
2023-04-18T04:30:14.974Z,19.77
2023-04-18T04:32:44.834Z,18.98
2023-04-18T04:35:11.915Z,18.85
2023-04-18T04:37:39.423Z,19.25
2023-04-18T04:40:09.470Z,18.20
2023-04-18T04:42:36.791Z,19.42
2023-04-18T04:45:06.534Z,19.52
2023-04-18T04:47:34.000Z,19.38
2023-04-18T04:50:01.151Z,18.38
2023-04-18T04:52:31.181Z,19.33
2023-04-18T04:55:00.564Z,18.55
2023-04-18T04:57:28.035Z,19.17
2023-04-18T04:59:57.357Z,18.67
2023-04-18T05:02:24.789Z,18.42
2023-04-18T05:04:52.225Z,16.98
2023-04-18T05:07:19.565Z,18.23
2023-04-18T05:09:46.651Z,16.92
2023-04-18T05:12:13.979Z,17.48
2023-04-18T05:14:41.065Z,17.13
2023-04-18T05:17:08.450Z,17.65
2023-04-18T05:19:35.799Z,17.25
2023-04-18T05:22:03.173Z,17.83
2023-04-18T05:24:30.248Z,16.98
2023-04-18T05:26:57.580Z,16.73
2023-04-18T05:29:24.685Z,17.38
2023-04-18T05:31:52.058Z,16.55
2023-04-18T05:34:19.283Z,16.80
2023-04-18T05:36:46.788Z,15.88
2023-04-18T05:39:14.039Z,16.27
2023-04-18T05:41:43.925Z,16.45
2023-04-18T05:44:14.022Z,16.90
2023-04-18T05:46:41.753Z,15.48
2023-04-18T05:49:09.163Z,15.20
2023-04-18T05:51:36.529Z,14.88
2023-04-18T05:54:03.656Z,14.02
2023-04-18T05:56:33.520Z,12.95
2023-04-18T05:59:00.551Z,14.00
2023-04-18T06:01:28.026Z,13.50
2023-04-18T06:03:57.500Z,12.25
2023-04-18T06:06:27.546Z,11.60
2023-04-18T06:08:54.655Z,11.80
2023-04-18T06:11:24.221Z,11.38
2023-04-18T06:13:51.249Z,11.57
2023-04-18T06:16:18.807Z,11.45
2023-04-18T06:18:45.880Z,11.55
2023-04-18T06:21:15.502Z,11.35
2023-04-18T06:23:42.580Z,11.68
2023-04-18T06:26:10.056Z,11.02
2023-04-18T06:28:37.050Z,10.77
2023-04-18T06:31:04.586Z,11.25
2023-04-18T06:33:31.626Z,11.23
2023-04-18T06:35:58.964Z,10.93
2023-04-18T06:38:28.313Z,10.57
2023-04-18T06:40:58.130Z,11.13
2023-04-18T06:43:25.151Z,11.05
2023-04-18T06:45:52.593Z,10.35
2023-04-18T06:48:19.692Z,11.68
2023-04-18T06:50:47.025Z,11.40
2023-04-18T06:53:14.969Z,12.00
2023-04-18T06:55:42.315Z,11.07
2023-04-18T06:58:09.371Z,10.77
2023-04-18T07:00:39.054Z,12.00
2023-04-18T07:03:07.621Z,11.48
2023-04-18T07:05:36.816Z,11.07
2023-04-18T07:08:03.959Z,10.52
2023-04-18T07:10:31.609Z,11.27
2023-04-18T07:12:58.812Z,11.63
2023-04-18T07:15:26.124Z,11.95
2023-04-18T07:17:53.336Z,11.77
2023-04-18T07:20:20.730Z,12.40
2023-04-18T07:22:48.759Z,12.30
2023-04-18T07:25:16.159Z,12.60
2023-04-18T07:27:46.714Z,13.35
2023-04-18T07:30:14.184Z,13.38
2023-04-18T07:32:41.378Z,13.40
2023-04-18T07:35:09.108Z,12.43
2023-04-18T07:37:38.485Z,11.70
2023-04-18T07:40:09.575Z,11.50
2023-04-18T07:42:36.709Z,11.18
2023-04-18T07:45:09.358Z,12.20
2023-04-18T07:47:36.448Z,10.85
2023-04-18T07:50:04.068Z,11.38
2023-04-18T07:52:31.160Z,10.85
2023-04-18T07:54:58.489Z,10.48
2023-04-18T07:57:30.208Z,11.20
2023-04-18T07:59:57.532Z,11.02
2023-04-18T08:02:24.714Z,11.23
2023-04-18T08:04:52.552Z,10.57
2023-04-18T08:07:19.873Z,11.40
2023-04-18T08:09:47.202Z,11.68
2023-04-18T08:12:14.298Z,10.70
2023-04-18T08:14:41.786Z,10.73
2023-04-18T08:17:08.817Z,10.73
2023-04-18T08:19:36.157Z,10.57
2023-04-18T08:22:09.999Z,10.15
2023-04-18T08:24:46.444Z,9.65
2023-04-18T08:27:20.536Z,8.70
2023-04-18T08:29:47.953Z,8.30
2023-04-18T08:32:15.006Z,8.68
2023-04-18T08:34:42.370Z,7.97
2023-04-18T08:37:09.435Z,8.50
2023-04-18T08:39:36.841Z,8.48
2023-04-18T08:42:10.280Z,8.50
2023-04-18T08:44:37.885Z,9.75
2023-04-18T08:47:07.762Z,9.82
2023-04-18T08:49:37.605Z,10.18
2023-04-18T08:52:10.663Z,10.55
2023-04-18T08:54:40.994Z,9.32
2023-04-18T08:57:11.826Z,9.75
2023-04-18T08:59:39.405Z,13.55
2023-04-18T09:02:07.007Z,10.48
2023-04-18T09:04:41.726Z,10.98
2023-04-18T09:07:13.726Z,12.05
2023-04-18T09:09:44.209Z,11.57
2023-04-18T09:12:12.059Z,12.40
2023-04-18T09:14:39.519Z,14.05
2023-04-18T09:17:06.582Z,15.55
2023-04-18T09:19:34.160Z,16.70
2023-04-18T09:22:04.897Z,18.90
2023-04-18T09:24:34.706Z,17.02
2023-04-18T09:27:01.834Z,19.67
2023-04-18T09:29:58.794Z,20.08
2023-04-18T09:32:29.453Z,19.05
2023-04-18T09:34:58.978Z,20.85
2023-04-18T09:37:26.583Z,20.35
2023-04-18T09:39:54.866Z,23.80
2023-04-18T09:42:23.140Z,24.42
2023-04-18T09:45:05.484Z,21.15
2023-04-18T09:47:34.246Z,23.40
2023-04-18T09:50:06.417Z,22.90
2023-04-18T09:52:44.490Z,22.30
2023-04-18T09:55:16.955Z,22.67
2023-04-18T09:57:46.380Z,23.10
2023-04-18T10:00:27.644Z,23.95
2023-04-18T10:03:05.399Z,22.80
2023-04-18T10:05:35.940Z,24.17
2023-04-18T10:08:03.736Z,22.70
2023-04-18T10:10:31.122Z,22.90
2023-04-18T10:13:00.131Z,23.00
2023-04-18T10:15:29.483Z,21.35
2023-04-18T10:18:04.624Z,23.02
2023-04-18T10:20:34.335Z,23.25
2023-04-18T10:23:34.456Z,24.45
2023-04-18T10:26:06.904Z,25.02
2023-04-18T10:28:58.165Z,28.00
2023-04-18T10:31:38.546Z,24.40
2023-04-18T10:34:07.104Z,25.35
2023-04-18T10:36:34.529Z,25.10
2023-04-18T10:39:22.218Z,26.10
2023-04-18T10:41:51.110Z,23.88
2023-04-18T10:44:22.499Z,27.15
2023-04-18T10:46:53.177Z,26.52
2023-04-18T10:49:32.642Z,25.67
2023-04-18T10:52:01.932Z,32.13
2023-04-18T10:54:57.059Z,27.50
2023-04-18T10:57:44.414Z,27.35
2023-04-18T11:00:18.787Z,28.83
2023-04-18T11:02:56.535Z,26.70
2023-04-18T11:05:25.912Z,26.85
2023-04-18T11:07:53.460Z,26.05
2023-04-18T11:10:25.489Z,24.33
2023-04-18T11:12:55.651Z,23.98
2023-04-18T11:15:25.632Z,23.88
2023-04-18T11:18:04.300Z,24.35
2023-04-18T11:20:39.288Z,24.70
2023-04-18T11:23:19.644Z,23.92
2023-04-18T11:25:49.908Z,24.60
2023-04-18T11:28:23.080Z,24.48
2023-04-18T11:30:50.494Z,24.40
2023-04-18T11:33:22.464Z,24.10
2023-04-18T11:35:57.489Z,25.38
2023-04-18T11:38:30.090Z,25.38
2023-04-18T11:40:57.138Z,26.55
2023-04-18T11:43:25.674Z,26.27
2023-04-18T11:45:53.534Z,26.77
2023-04-18T11:48:20.972Z,27.52
2023-04-18T11:50:47.980Z,27.67
2023-04-18T11:53:40.374Z,29.65
2023-04-18T11:56:08.003Z,27.58
2023-04-18T11:58:37.857Z,28.73
2023-04-18T12:01:20.682Z,29.42
2023-04-18T12:04:01.256Z,28.92
2023-04-18T12:06:45.218Z,30.23
2023-04-18T12:09:19.517Z,28.75
2023-04-18T12:11:57.941Z,29.25
2023-04-18T12:14:25.346Z,29.52
2023-04-18T12:16:52.470Z,29.20
2023-04-18T12:19:25.388Z,28.45
2023-04-18T12:21:59.275Z,28.65
2023-04-18T12:24:27.884Z,29.42
2023-04-18T12:26:58.982Z,29.38
2023-04-18T12:29:29.531Z,30.88
2023-04-18T12:31:56.667Z,30.98
2023-04-18T12:34:24.286Z,31.52
2023-04-18T12:36:51.317Z,30.33
2023-04-18T12:39:18.650Z,28.33
2023-04-18T12:41:46.726Z,29.15
2023-04-18T12:44:17.351Z,29.02
2023-04-18T12:46:44.443Z,31.35
2023-04-18T12:49:11.862Z,27.73
2023-04-18T12:51:38.881Z,27.75
2023-04-18T12:54:08.421Z,27.75
2023-04-18T12:56:35.424Z,28.00
2023-04-18T12:59:02.793Z,28.15
2023-04-18T13:01:29.909Z,27.83
2023-04-18T13:04:10.852Z,27.00
2023-04-18T13:06:39.455Z,28.75
2023-04-18T13:09:09.439Z,29.63
2023-04-18T13:11:36.490Z,27.13
2023-04-18T13:14:03.832Z,27.42
2023-04-18T13:16:31.245Z,27.08
2023-04-18T13:18:58.652Z,27.58
2023-04-18T13:21:25.722Z,35.78
2023-04-18T13:23:53.097Z,28.33
2023-04-18T13:26:20.719Z,28.38
2023-04-18T13:28:48.211Z,33.97
2023-04-18T13:31:17.097Z,27.40
2023-04-18T13:33:46.859Z,26.90
2023-04-18T13:36:13.920Z,27.08
2023-04-18T13:38:41.721Z,26.83
2023-04-18T13:41:12.742Z,26.92
2023-04-18T13:43:40.779Z,27.33
2023-04-18T13:46:07.975Z,28.33
2023-04-18T13:48:35.355Z,28.90
2023-04-18T13:51:03.226Z,27.50
2023-04-18T13:53:31.229Z,29.02
2023-04-18T13:56:00.784Z,29.48
2023-04-18T13:58:28.104Z,28.58
2023-04-18T14:00:55.226Z,29.27
2023-04-18T14:03:24.904Z,29.17
2023-04-18T14:05:51.992Z,32.25
2023-04-18T14:08:22.004Z,32.58
2023-04-18T14:10:49.000Z,33.58
2023-04-18T14:13:16.445Z,34.67
2023-04-18T14:15:43.679Z,36.08
2023-04-18T14:18:14.160Z,34.45
2023-04-18T14:20:41.326Z,35.42
2023-04-18T14:23:08.660Z,32.28
2023-04-18T14:25:40.534Z,35.42
2023-04-18T14:28:10.235Z,32.97
2023-04-18T14:30:38.501Z,32.83
2023-04-18T14:33:10.829Z,33.35
2023-04-18T14:35:37.982Z,34.15
2023-04-18T14:38:07.603Z,33.20
2023-04-18T14:40:34.759Z,31.60
2023-04-18T14:43:04.583Z,32.83
2023-04-18T14:45:33.369Z,32.17
2023-04-18T14:48:01.374Z,32.03
2023-04-18T14:50:28.433Z,32.10
2023-04-18T14:52:55.740Z,31.75
2023-04-18T14:55:22.786Z,33.08
2023-04-18T14:57:50.192Z,32.47
2023-04-18T15:00:17.517Z,29.33
2023-04-18T15:02:45.108Z,33.63
2023-04-18T15:05:13.079Z,26.80
2023-04-18T15:07:40.678Z,28.67
2023-04-18T15:10:08.304Z,29.05
2023-04-18T15:12:35.634Z,29.20
2023-04-18T15:15:02.681Z,26.67
2023-04-18T15:17:30.510Z,28.85
2023-04-18T15:19:58.866Z,37.85
2023-04-18T15:22:26.206Z,27.95
2023-04-18T15:24:57.779Z,28.88
2023-04-18T15:27:27.318Z,30.60
2023-04-18T15:29:54.568Z,30.38
2023-04-18T15:32:22.145Z,28.85
2023-04-18T15:34:49.442Z,29.00
2023-04-18T15:37:16.811Z,29.92
2023-04-18T15:39:43.836Z,29.98
2023-04-18T15:42:13.252Z,29.98
2023-04-18T15:44:42.462Z,34.65
2023-04-18T15:47:09.783Z,31.58
2023-04-18T15:49:36.872Z,30.67
2023-04-18T15:52:04.426Z,30.27
2023-04-18T15:54:33.969Z,30.67
2023-04-18T15:57:01.525Z,30.48
2023-04-18T15:59:28.596Z,31.23
2023-04-18T16:01:58.673Z,31.02
2023-04-18T16:04:25.953Z,31.25
2023-04-18T16:06:53.376Z,30.27
2023-04-18T16:09:20.499Z,31.08
2023-04-18T16:11:47.900Z,29.80
2023-04-18T16:14:15.170Z,32.45
2023-04-18T16:16:42.677Z,29.80
2023-04-18T16:19:09.862Z,27.58
2023-04-18T16:21:37.254Z,27.83
2023-04-18T16:24:04.557Z,31.25
2023-04-18T16:26:34.397Z,28.92
2023-04-18T16:29:03.649Z,28.67
2023-04-18T16:31:35.836Z,27.33
2023-04-18T16:34:03.236Z,29.63
2023-04-18T16:36:33.248Z,30.67
2023-04-18T16:39:00.632Z,29.42
2023-04-18T16:41:28.089Z,30.48
2023-04-18T16:43:55.088Z,29.20
2023-04-18T16:46:24.772Z,29.13
2023-04-18T16:48:52.654Z,29.90
2023-04-18T16:51:22.288Z,28.17
2023-04-18T16:53:49.491Z,28.17
2023-04-18T16:56:16.847Z,28.77
2023-04-18T16:58:46.500Z,30.15
2023-04-18T17:01:13.968Z,29.23
2023-04-18T17:03:41.138Z,30.35
2023-04-18T17:06:08.583Z,29.05
2023-04-18T17:08:37.956Z,28.67
2023-04-18T17:11:07.512Z,30.10
2023-04-18T17:13:34.556Z,28.10
2023-04-18T17:16:01.973Z,28.55
2023-04-18T17:18:29.078Z,29.85
2023-04-18T17:20:58.665Z,28.58
2023-04-18T17:23:28.480Z,27.52
2023-04-18T17:25:56.577Z,30.05
2023-04-18T17:28:26.157Z,27.67
2023-04-18T17:30:55.709Z,30.45
2023-04-18T17:33:22.784Z,28.00
2023-04-18T17:35:50.165Z,29.83
2023-04-18T17:38:17.223Z,29.35
2023-04-18T17:40:44.544Z,29.40
2023-04-18T17:43:14.388Z,28.80
2023-04-18T17:45:44.244Z,29.13
2023-04-18T17:48:13.852Z,30.52
2023-04-18T17:50:41.625Z,29.77
2023-04-18T17:53:08.649Z,29.40
2023-04-18T17:55:35.976Z,30.42
2023-04-18T17:58:05.336Z,31.95
2023-04-18T18:00:32.691Z,30.65
2023-04-18T18:02:59.885Z,32.10
2023-04-18T18:05:30.289Z,32.35
2023-04-18T18:08:00.214Z,33.25
2023-04-18T18:10:28.013Z,32.30
2023-04-18T18:12:55.052Z,35.33
2023-04-18T18:15:22.473Z,31.55
2023-04-18T18:17:52.257Z,32.20
2023-04-18T18:20:19.756Z,31.40
2023-04-18T18:22:49.273Z,31.98
2023-04-18T18:25:19.089Z,34.17
2023-04-18T18:27:46.347Z,33.55
2023-04-18T18:30:14.207Z,33.92
2023-04-18T18:32:41.334Z,33.13
2023-04-18T18:35:09.220Z,31.85
2023-04-18T18:37:36.333Z,33.22
2023-04-18T18:40:07.757Z,31.67
2023-04-18T18:42:39.339Z,32.65
2023-04-18T18:45:09.749Z,31.25
2023-04-18T18:47:40.580Z,31.75
2023-04-18T18:50:08.264Z,31.25
2023-04-18T18:52:35.311Z,30.52
2023-04-18T18:55:05.495Z,30.45
2023-04-18T18:57:34.761Z,35.35
2023-04-18T19:00:02.286Z,31.92
2023-04-18T19:02:29.571Z,31.38
2023-04-18T19:05:02.131Z,30.38
2023-04-18T19:07:30.149Z,32.00
2023-04-18T19:09:57.786Z,32.00
2023-04-18T19:12:27.463Z,31.83
2023-04-18T19:14:54.840Z,30.27
2023-04-18T19:17:21.996Z,31.65
2023-04-18T19:19:49.364Z,32.78
2023-04-18T19:22:16.397Z,31.90
2023-04-18T19:24:46.092Z,33.28
2023-04-18T19:27:13.159Z,31.83
2023-04-18T19:29:40.478Z,33.30
2023-04-18T19:32:07.601Z,33.17
2023-04-18T19:34:34.998Z,36.08
2023-04-18T19:37:04.659Z,33.58
2023-04-18T19:39:32.245Z,34.05
2023-04-18T19:41:59.330Z,33.15
2023-04-18T19:44:26.676Z,34.53
2023-04-18T19:46:53.721Z,33.35
2023-04-18T19:49:21.049Z,32.00
2023-04-18T19:51:48.381Z,31.50
2023-04-18T19:54:15.756Z,32.78
2023-04-18T19:56:42.786Z,31.73
2023-04-18T19:59:10.203Z,31.70
2023-04-18T20:01:37.364Z,34.67
2023-04-18T20:04:04.943Z,32.90
2023-04-18T20:06:32.042Z,32.63
2023-04-18T20:08:59.516Z,32.85
2023-04-18T20:11:26.620Z,34.08
2023-04-18T20:13:54.070Z,32.22
2023-04-18T20:16:21.375Z,34.08
2023-04-18T20:18:51.945Z,33.80
2023-04-18T20:21:23.102Z,33.33
2023-04-18T20:23:52.773Z,32.60
2023-04-18T20:26:19.797Z,32.33
2023-04-18T20:28:47.328Z,32.20
2023-04-18T20:31:14.495Z,32.65
2023-04-18T20:33:41.952Z,33.45
2023-04-18T20:36:08.999Z,30.92
2023-04-18T20:38:36.361Z,30.40
2023-04-18T20:41:05.920Z,30.35
2023-04-18T20:43:33.293Z,32.08
2023-04-18T20:46:00.331Z,32.22
2023-04-18T20:48:29.876Z,29.55
2023-04-18T20:50:56.913Z,30.30
2023-04-18T20:53:24.262Z,28.45
2023-04-18T20:55:54.537Z,29.33
2023-04-18T20:58:21.966Z,27.40
2023-04-18T21:00:48.989Z,28.00
2023-04-18T21:03:17.031Z,26.13
2023-04-18T21:05:44.566Z,26.65
2023-04-18T21:08:11.972Z,26.55
2023-04-18T21:10:39.153Z,25.15
2023-04-18T21:13:08.716Z,26.50
2023-04-18T21:15:35.967Z,24.65
2023-04-18T21:18:05.909Z,24.85
2023-04-18T21:20:35.158Z,23.25
2023-04-18T21:23:05.522Z,24.48
2023-04-18T21:25:32.536Z,23.48
2023-04-18T21:28:02.139Z,24.10
2023-04-18T21:30:29.520Z,24.13
2023-04-18T21:32:56.819Z,26.98
2023-04-18T21:35:24.936Z,24.88
2023-04-18T21:37:52.542Z,23.33
2023-04-18T21:40:19.706Z,22.33
2023-04-18T21:42:49.889Z,23.35
2023-04-18T21:45:17.745Z,24.13
2023-04-18T21:47:45.095Z,25.10
2023-04-18T21:50:12.230Z,23.38
2023-04-18T21:52:39.639Z,24.63
2023-04-18T21:55:06.916Z,25.50
2023-04-18T21:57:34.240Z,24.70
2023-04-18T22:00:01.309Z,25.25
2023-04-18T22:02:28.793Z,24.67
2023-04-18T22:04:56.074Z,25.85
2023-04-18T22:07:23.392Z,25.02
2023-04-18T22:09:50.449Z,25.73
2023-04-18T22:12:17.844Z,26.67
2023-04-18T22:14:47.303Z,27.30
2023-04-18T22:17:17.105Z,27.92
2023-04-18T22:19:46.684Z,27.15
2023-04-18T22:22:14.040Z,27.48
2023-04-18T22:24:41.047Z,27.00
2023-04-18T22:27:08.383Z,27.83
2023-04-18T22:29:35.436Z,26.38
2023-04-18T22:32:02.959Z,26.60
2023-04-18T22:34:30.050Z,27.02
2023-04-18T22:36:57.413Z,26.45
2023-04-18T22:39:27.491Z,26.30
2023-04-18T22:41:54.840Z,27.83
2023-04-18T22:44:24.160Z,26.60
2023-04-18T22:46:51.008Z,27.05
2023-04-18T22:49:20.658Z,25.65
2023-04-18T22:51:47.722Z,26.85
2023-04-18T22:54:15.348Z,24.90
2023-04-18T22:56:42.664Z,25.55
2023-04-18T22:59:09.966Z,24.67
2023-04-18T23:01:37.021Z,26.67
2023-04-18T23:04:04.551Z,24.55
2023-04-18T23:06:31.647Z,26.48
2023-04-18T23:08:59.074Z,26.40
2023-04-18T23:11:26.095Z,26.02
2023-04-18T23:13:53.412Z,25.17
2023-04-18T23:16:20.550Z,26.50
2023-04-18T23:18:47.953Z,27.40
2023-04-18T23:21:17.488Z,26.63
2023-04-18T23:23:44.876Z,26.02
2023-04-18T23:26:17.428Z,25.55
2023-04-18T23:28:44.776Z,26.95
2023-04-18T23:31:11.947Z,26.13
2023-04-18T23:33:41.689Z,24.92
2023-04-18T23:36:11.295Z,26.33
2023-04-18T23:38:40.308Z,25.05
2023-04-18T23:41:07.339Z,23.70
2023-04-18T23:43:38.058Z,23.30
2023-04-18T23:46:05.212Z,22.75
2023-04-18T23:48:35.156Z,21.15
2023-04-18T23:51:02.426Z,24.13
2023-04-18T23:53:32.242Z,22.15
2023-04-18T23:55:59.250Z,23.58
2023-04-18T23:58:26.551Z,22.88
